sensor_id;sensor_type;location;lat;lon;timestamp;temperature;humidity
5846;DHT22;2949;50.778;7.094;2023-04-03T00:02:15;3.50;99.90
5846;DHT22;2949;50.778;7.094;2023-04-03T00:04:41;3.40;99.90
5846;DHT22;2949;50.778;7.094;2023-04-03T00:07:06;3.50;99.90
5846;DHT22;2949;50.778;7.094;2023-04-03T00:09:32;3.50;99.90
5846;DHT22;2949;50.778;7.094;2023-04-03T00:11:57;3.50;99.90
5846;DHT22;2949;50.778;7.094;2023-04-03T00:14:23;3.50;99.90
5846;DHT22;2949;50.778;7.094;2023-04-03T00:16:48;3.50;99.90
5846;DHT22;2949;50.778;7.094;2023-04-03T00:19:14;3.60;99.90
5846;DHT22;2949;50.778;7.094;2023-04-03T00:21:40;3.60;99.90
5846;DHT22;2949;50.778;7.094;2023-04-03T00:24:05;3.60;99.90
5846;DHT22;2949;50.778;7.094;2023-04-03T00:26:31;3.60;99.90
5846;DHT22;2949;50.778;7.094;2023-04-03T00:28:56;3.70;99.90
5846;DHT22;2949;50.778;7.094;2023-04-03T00:31:22;3.70;99.90
5846;DHT22;2949;50.778;7.094;2023-04-03T00:33:48;3.70;99.90
5846;DHT22;2949;50.778;7.094;2023-04-03T00:36:13;3.70;99.90
5846;DHT22;2949;50.778;7.094;2023-04-03T00:38:39;3.70;99.90
5846;DHT22;2949;50.778;7.094;2023-04-03T00:41:05;3.60;99.90
5846;DHT22;2949;50.778;7.094;2023-04-03T00:43:31;3.60;99.90
5846;DHT22;2949;50.778;7.094;2023-04-03T00:45:58;3.60;99.90
5846;DHT22;2949;50.778;7.094;2023-04-03T00:48:34;3.60;99.90
5846;DHT22;2949;50.778;7.094;2023-04-03T00:51:01;3.60;99.90
5846;DHT22;2949;50.778;7.094;2023-04-03T00:53:33;3.60;99.90
5846;DHT22;2949;50.778;7.094;2023-04-03T00:55:59;3.60;99.90
5846;DHT22;2949;50.778;7.094;2023-04-03T00:58:33;3.60;99.90
5846;DHT22;2949;50.778;7.094;2023-04-03T01:00:59;3.70;99.90
5846;DHT22;2949;50.778;7.094;2023-04-03T01:03:28;3.70;99.90
5846;DHT22;2949;50.778;7.094;2023-04-03T01:05:56;3.70;99.90
5846;DHT22;2949;50.778;7.094;2023-04-03T01:08:22;3.60;99.90
5846;DHT22;2949;50.778;7.094;2023-04-03T01:10:48;3.50;99.90
5846;DHT22;2949;50.778;7.094;2023-04-03T01:13:26;3.50;99.90
5846;DHT22;2949;50.778;7.094;2023-04-03T01:15:53;3.50;99.90
5846;DHT22;2949;50.778;7.094;2023-04-03T01:18:20;3.50;99.90
5846;DHT22;2949;50.778;7.094;2023-04-03T01:24:07;3.50;99.90
5846;DHT22;2949;50.778;7.094;2023-04-03T01:26:35;3.40;99.90
5846;DHT22;2949;50.778;7.094;2023-04-03T01:29:01;3.30;99.90
5846;DHT22;2949;50.778;7.094;2023-04-03T01:31:56;3.20;99.90
5846;DHT22;2949;50.778;7.094;2023-04-03T01:34:22;3.20;99.90
5846;DHT22;2949;50.778;7.094;2023-04-03T01:36:48;3.10;99.90
5846;DHT22;2949;50.778;7.094;2023-04-03T01:39:14;3.10;99.90
5846;DHT22;2949;50.778;7.094;2023-04-03T01:41:39;3.20;99.90
5846;DHT22;2949;50.778;7.094;2023-04-03T01:44:05;3.10;99.90
5846;DHT22;2949;50.778;7.094;2023-04-03T01:46:31;3.00;99.90
5846;DHT22;2949;50.778;7.094;2023-04-03T01:48:57;2.80;99.90
5846;DHT22;2949;50.778;7.094;2023-04-03T01:51:23;2.80;99.90
5846;DHT22;2949;50.778;7.094;2023-04-03T01:53:48;2.70;99.90
5846;DHT22;2949;50.778;7.094;2023-04-03T01:56:14;2.60;99.90
5846;DHT22;2949;50.778;7.094;2023-04-03T01:58:39;2.50;99.90
5846;DHT22;2949;50.778;7.094;2023-04-03T02:01:05;2.50;99.90
5846;DHT22;2949;50.778;7.094;2023-04-03T02:03:31;2.50;99.90
5846;DHT22;2949;50.778;7.094;2023-04-03T02:05:57;2.50;99.90
5846;DHT22;2949;50.778;7.094;2023-04-03T02:08:22;2.40;99.90
5846;DHT22;2949;50.778;7.094;2023-04-03T02:10:49;2.40;99.90
5846;DHT22;2949;50.778;7.094;2023-04-03T02:13:15;2.50;99.90
5846;DHT22;2949;50.778;7.094;2023-04-03T02:15:41;2.50;99.90
5846;DHT22;2949;50.778;7.094;2023-04-03T02:18:07;2.40;99.90
5846;DHT22;2949;50.778;7.094;2023-04-03T02:20:32;2.30;99.90
5846;DHT22;2949;50.778;7.094;2023-04-03T02:22:59;2.20;99.90
5846;DHT22;2949;50.778;7.094;2023-04-03T02:25:24;2.20;99.90
5846;DHT22;2949;50.778;7.094;2023-04-03T02:27:50;2.10;99.90
5846;DHT22;2949;50.778;7.094;2023-04-03T02:30:15;2.00;99.90
5846;DHT22;2949;50.778;7.094;2023-04-03T02:32:42;2.00;99.90
5846;DHT22;2949;50.778;7.094;2023-04-03T02:35:08;2.00;99.90
5846;DHT22;2949;50.778;7.094;2023-04-03T02:37:34;2.00;99.90
5846;DHT22;2949;50.778;7.094;2023-04-03T02:40:00;2.00;99.90
5846;DHT22;2949;50.778;7.094;2023-04-03T02:42:25;2.00;99.90
5846;DHT22;2949;50.778;7.094;2023-04-03T02:44:51;2.00;99.90
5846;DHT22;2949;50.778;7.094;2023-04-03T02:47:17;2.10;99.90
5846;DHT22;2949;50.778;7.094;2023-04-03T02:49:42;2.20;99.90
5846;DHT22;2949;50.778;7.094;2023-04-03T02:52:10;2.20;99.90
5846;DHT22;2949;50.778;7.094;2023-04-03T02:54:35;2.20;99.90
5846;DHT22;2949;50.778;7.094;2023-04-03T02:57:01;2.20;99.90
5846;DHT22;2949;50.778;7.094;2023-04-03T02:59:27;2.10;99.90
5846;DHT22;2949;50.778;7.094;2023-04-03T03:01:52;2.10;99.90
5846;DHT22;2949;50.778;7.094;2023-04-03T03:04:18;2.00;99.90
5846;DHT22;2949;50.778;7.094;2023-04-03T03:06:44;1.90;99.90
5846;DHT22;2949;50.778;7.094;2023-04-03T03:09:09;1.90;99.90
5846;DHT22;2949;50.778;7.094;2023-04-03T03:11:35;1.90;99.90
5846;DHT22;2949;50.778;7.094;2023-04-03T03:14:00;1.80;99.90
5846;DHT22;2949;50.778;7.094;2023-04-03T03:16:26;1.80;99.90
5846;DHT22;2949;50.778;7.094;2023-04-03T03:18:51;1.80;99.90
5846;DHT22;2949;50.778;7.094;2023-04-03T03:21:17;1.80;99.90
5846;DHT22;2949;50.778;7.094;2023-04-03T03:23:42;1.70;99.90
5846;DHT22;2949;50.778;7.094;2023-04-03T03:26:09;1.60;99.90
5846;DHT22;2949;50.778;7.094;2023-04-03T03:28:37;1.50;99.90
5846;DHT22;2949;50.778;7.094;2023-04-03T03:31:04;1.50;99.90
5846;DHT22;2949;50.778;7.094;2023-04-03T03:33:30;1.40;99.90
5846;DHT22;2949;50.778;7.094;2023-04-03T03:35:55;1.30;99.90
5846;DHT22;2949;50.778;7.094;2023-04-03T03:38:21;1.30;99.90
5846;DHT22;2949;50.778;7.094;2023-04-03T03:40:48;1.30;99.90
5846;DHT22;2949;50.778;7.094;2023-04-03T03:43:14;1.30;99.90
5846;DHT22;2949;50.778;7.094;2023-04-03T03:45:40;1.30;99.90
5846;DHT22;2949;50.778;7.094;2023-04-03T03:48:06;1.30;99.90
5846;DHT22;2949;50.778;7.094;2023-04-03T03:50:31;1.30;99.90
5846;DHT22;2949;50.778;7.094;2023-04-03T03:52:57;1.30;99.90
5846;DHT22;2949;50.778;7.094;2023-04-03T03:55:23;1.30;99.90
5846;DHT22;2949;50.778;7.094;2023-04-03T03:57:48;1.40;99.90
5846;DHT22;2949;50.778;7.094;2023-04-03T04:00:14;1.40;99.90
5846;DHT22;2949;50.778;7.094;2023-04-03T04:02:40;1.30;99.90
5846;DHT22;2949;50.778;7.094;2023-04-03T04:05:06;1.40;99.90
5846;DHT22;2949;50.778;7.094;2023-04-03T04:07:31;1.30;99.90
5846;DHT22;2949;50.778;7.094;2023-04-03T04:09:57;1.30;99.90
5846;DHT22;2949;50.778;7.094;2023-04-03T04:12:22;1.30;99.90
5846;DHT22;2949;50.778;7.094;2023-04-03T04:14:48;1.30;99.90
5846;DHT22;2949;50.778;7.094;2023-04-03T04:17:13;1.30;99.90
5846;DHT22;2949;50.778;7.094;2023-04-03T04:19:39;1.20;99.90
5846;DHT22;2949;50.778;7.094;2023-04-03T04:22:05;1.10;99.90
5846;DHT22;2949;50.778;7.094;2023-04-03T04:24:30;1.00;99.90
5846;DHT22;2949;50.778;7.094;2023-04-03T04:26:56;0.90;99.90
5846;DHT22;2949;50.778;7.094;2023-04-03T04:29:21;0.80;99.90
5846;DHT22;2949;50.778;7.094;2023-04-03T04:31:47;0.70;99.90
5846;DHT22;2949;50.778;7.094;2023-04-03T04:34:12;0.70;99.90
5846;DHT22;2949;50.778;7.094;2023-04-03T04:36:38;0.60;99.90
5846;DHT22;2949;50.778;7.094;2023-04-03T04:39:04;0.60;99.90
5846;DHT22;2949;50.778;7.094;2023-04-03T04:41:31;0.50;99.90
5846;DHT22;2949;50.778;7.094;2023-04-03T04:43:56;0.40;99.90
5846;DHT22;2949;50.778;7.094;2023-04-03T04:46:22;0.40;99.90
5846;DHT22;2949;50.778;7.094;2023-04-03T04:48:47;0.40;99.90
5846;DHT22;2949;50.778;7.094;2023-04-03T04:51:13;0.40;99.90
5846;DHT22;2949;50.778;7.094;2023-04-03T04:53:39;0.40;99.90
5846;DHT22;2949;50.778;7.094;2023-04-03T04:56:05;0.30;99.90
5846;DHT22;2949;50.778;7.094;2023-04-03T04:58:31;0.20;99.90
5846;DHT22;2949;50.778;7.094;2023-04-03T05:01:09;0.20;99.90
5846;DHT22;2949;50.778;7.094;2023-04-03T05:03:36;0.10;99.90
5846;DHT22;2949;50.778;7.094;2023-04-03T05:06:01;0.10;99.90
5846;DHT22;2949;50.778;7.094;2023-04-03T05:08:27;0.10;99.90
5846;DHT22;2949;50.778;7.094;2023-04-03T05:10:53;0.10;99.90
5846;DHT22;2949;50.778;7.094;2023-04-03T05:13:19;0.20;99.90
5846;DHT22;2949;50.778;7.094;2023-04-03T05:15:44;0.20;99.90
5846;DHT22;2949;50.778;7.094;2023-04-03T05:18:10;0.20;99.90
5846;DHT22;2949;50.778;7.094;2023-04-03T05:20:35;0.30;99.90
5846;DHT22;2949;50.778;7.094;2023-04-03T05:23:02;0.30;99.90
5846;DHT22;2949;50.778;7.094;2023-04-03T05:25:27;0.40;99.90
5846;DHT22;2949;50.778;7.094;2023-04-03T05:27:53;0.50;99.90
5846;DHT22;2949;50.778;7.094;2023-04-03T05:30:19;0.60;99.90
5846;DHT22;2949;50.778;7.094;2023-04-03T05:32:44;0.60;99.90
5846;DHT22;2949;50.778;7.094;2023-04-03T05:35:11;0.70;99.90
5846;DHT22;2949;50.778;7.094;2023-04-03T05:37:37;0.80;99.90
5846;DHT22;2949;50.778;7.094;2023-04-03T05:40:04;0.80;99.90
5846;DHT22;2949;50.778;7.094;2023-04-03T05:42:29;0.90;99.90
5846;DHT22;2949;50.778;7.094;2023-04-03T05:44:55;1.00;99.90
5846;DHT22;2949;50.778;7.094;2023-04-03T05:47:22;1.10;99.90
5846;DHT22;2949;50.778;7.094;2023-04-03T05:49:47;1.20;99.90
5846;DHT22;2949;50.778;7.094;2023-04-03T05:52:28;1.30;99.90
5846;DHT22;2949;50.778;7.094;2023-04-03T05:54:54;1.50;99.90
5846;DHT22;2949;50.778;7.094;2023-04-03T05:57:19;1.70;99.90
5846;DHT22;2949;50.778;7.094;2023-04-03T05:59:46;1.80;99.90
5846;DHT22;2949;50.778;7.094;2023-04-03T06:02:13;1.80;99.90
5846;DHT22;2949;50.778;7.094;2023-04-03T06:04:39;1.90;99.90
5846;DHT22;2949;50.778;7.094;2023-04-03T06:07:05;1.90;99.90
5846;DHT22;2949;50.778;7.094;2023-04-03T06:09:31;2.10;99.90
5846;DHT22;2949;50.778;7.094;2023-04-03T06:11:57;2.10;99.90
5846;DHT22;2949;50.778;7.094;2023-04-03T06:14:24;2.20;99.90
5846;DHT22;2949;50.778;7.094;2023-04-03T06:16:51;2.20;99.90
5846;DHT22;2949;50.778;7.094;2023-04-03T06:19:17;2.30;99.90
5846;DHT22;2949;50.778;7.094;2023-04-03T06:21:42;2.40;99.90
5846;DHT22;2949;50.778;7.094;2023-04-03T06:24:10;2.60;99.90
5846;DHT22;2949;50.778;7.094;2023-04-03T06:26:37;2.60;99.90
5846;DHT22;2949;50.778;7.094;2023-04-03T06:29:03;2.70;99.90
5846;DHT22;2949;50.778;7.094;2023-04-03T06:31:29;2.80;99.90
5846;DHT22;2949;50.778;7.094;2023-04-03T06:33:54;3.00;99.90
5846;DHT22;2949;50.778;7.094;2023-04-03T06:36:21;3.10;99.90
5846;DHT22;2949;50.778;7.094;2023-04-03T06:38:47;3.30;99.90
5846;DHT22;2949;50.778;7.094;2023-04-03T06:41:13;3.40;99.90
5846;DHT22;2949;50.778;7.094;2023-04-03T06:43:39;3.50;99.90
5846;DHT22;2949;50.778;7.094;2023-04-03T06:46:04;3.70;99.90
5846;DHT22;2949;50.778;7.094;2023-04-03T06:48:30;3.80;99.90
5846;DHT22;2949;50.778;7.094;2023-04-03T06:50:56;4.00;99.90
5846;DHT22;2949;50.778;7.094;2023-04-03T06:53:21;4.20;99.90
5846;DHT22;2949;50.778;7.094;2023-04-03T06:55:47;4.40;99.90
5846;DHT22;2949;50.778;7.094;2023-04-03T06:58:13;4.80;99.90
5846;DHT22;2949;50.778;7.094;2023-04-03T07:00:40;5.30;99.90
5846;DHT22;2949;50.778;7.094;2023-04-03T07:03:06;8.30;99.90
5846;DHT22;2949;50.778;7.094;2023-04-03T07:05:32;11.30;99.90
5846;DHT22;2949;50.778;7.094;2023-04-03T07:07:57;13.20;99.90
5846;DHT22;2949;50.778;7.094;2023-04-03T07:10:23;15.00;94.50
5846;DHT22;2949;50.778;7.094;2023-04-03T07:12:48;16.10;90.50
5846;DHT22;2949;50.778;7.094;2023-04-03T07:15:14;16.50;84.00
5846;DHT22;2949;50.778;7.094;2023-04-03T07:17:40;16.70;80.60
5846;DHT22;2949;50.778;7.094;2023-04-03T07:20:06;17.40;77.80
5846;DHT22;2949;50.778;7.094;2023-04-03T07:22:32;18.10;73.90
5846;DHT22;2949;50.778;7.094;2023-04-03T07:24:58;18.40;70.00
5846;DHT22;2949;50.778;7.094;2023-04-03T07:27:24;18.30;67.50
5846;DHT22;2949;50.778;7.094;2023-04-03T07:29:50;18.10;67.10
5846;DHT22;2949;50.778;7.094;2023-04-03T07:32:16;17.70;65.50
5846;DHT22;2949;50.778;7.094;2023-04-03T07:34:42;17.70;65.10
5846;DHT22;2949;50.778;7.094;2023-04-03T07:37:08;17.70;64.30
5846;DHT22;2949;50.778;7.094;2023-04-03T07:39:34;18.10;63.50
5846;DHT22;2949;50.778;7.094;2023-04-03T07:42:00;18.50;63.50
5846;DHT22;2949;50.778;7.094;2023-04-03T07:44:26;19.50;61.70
5846;DHT22;2949;50.778;7.094;2023-04-03T07:46:51;19.00;59.70
5846;DHT22;2949;50.778;7.094;2023-04-03T07:49:17;18.70;60.20
5846;DHT22;2949;50.778;7.094;2023-04-03T07:51:44;18.80;59.00
5846;DHT22;2949;50.778;7.094;2023-04-03T07:54:09;18.80;59.30
5846;DHT22;2949;50.778;7.094;2023-04-03T07:56:35;18.80;58.80
5846;DHT22;2949;50.778;7.094;2023-04-03T07:59:00;19.40;57.40
5846;DHT22;2949;50.778;7.094;2023-04-03T08:01:26;19.80;56.50
5846;DHT22;2949;50.778;7.094;2023-04-03T08:03:52;19.40;56.20
5846;DHT22;2949;50.778;7.094;2023-04-03T08:06:17;19.20;56.60
5846;DHT22;2949;50.778;7.094;2023-04-03T08:08:43;19.70;56.30
5846;DHT22;2949;50.778;7.094;2023-04-03T08:11:09;20.00;56.00
5846;DHT22;2949;50.778;7.094;2023-04-03T08:13:35;20.30;55.40
5846;DHT22;2949;50.778;7.094;2023-04-03T08:16:13;20.70;54.00
5846;DHT22;2949;50.778;7.094;2023-04-03T08:18:38;20.90;53.00
5846;DHT22;2949;50.778;7.094;2023-04-03T08:21:11;21.20;52.80
5846;DHT22;2949;50.778;7.094;2023-04-03T08:23:37;21.60;52.10
5846;DHT22;2949;50.778;7.094;2023-04-03T08:26:08;21.50;50.70
5846;DHT22;2949;50.778;7.094;2023-04-03T08:28:34;21.60;49.80
5846;DHT22;2949;50.778;7.094;2023-04-03T08:31:04;21.40;50.50
5846;DHT22;2949;50.778;7.094;2023-04-03T08:33:31;21.30;50.50
5846;DHT22;2949;50.778;7.094;2023-04-03T08:35:57;21.50;49.50
5846;DHT22;2949;50.778;7.094;2023-04-03T08:38:23;21.30;49.50
5846;DHT22;2949;50.778;7.094;2023-04-03T08:41:01;21.80;49.40
5846;DHT22;2949;50.778;7.094;2023-04-03T08:43:55;21.50;46.70
5846;DHT22;2949;50.778;7.094;2023-04-03T08:46:30;20.70;47.50
5846;DHT22;2949;50.778;7.094;2023-04-03T08:48:58;19.60;46.30
5846;DHT22;2949;50.778;7.094;2023-04-03T08:51:26;18.60;48.20
5846;DHT22;2949;50.778;7.094;2023-04-03T08:56:19;19.10;48.00
5846;DHT22;2949;50.778;7.094;2023-04-03T08:58:50;18.90;49.00
5846;DHT22;2949;50.778;7.094;2023-04-03T09:01:35;19.50;48.90
5846;DHT22;2949;50.778;7.094;2023-04-03T09:04:01;19.20;47.50
5846;DHT22;2949;50.778;7.094;2023-04-03T09:06:31;19.40;47.10
5846;DHT22;2949;50.778;7.094;2023-04-03T09:09:29;19.20;47.00
5846;DHT22;2949;50.778;7.094;2023-04-03T09:16:59;19.50;46.20
5846;DHT22;2949;50.778;7.094;2023-04-03T09:22:16;19.20;46.60
5846;DHT22;2949;50.778;7.094;2023-04-03T09:24:45;19.70;46.40
5846;DHT22;2949;50.778;7.094;2023-04-03T09:27:12;19.40;46.30
5846;DHT22;2949;50.778;7.094;2023-04-03T09:29:44;19.10;46.20
5846;DHT22;2949;50.778;7.094;2023-04-03T09:32:47;19.00;44.90
5846;DHT22;2949;50.778;7.094;2023-04-03T09:37:41;18.10;45.20
5846;DHT22;2949;50.778;7.094;2023-04-03T09:45:43;17.00;46.30
5846;DHT22;2949;50.778;7.094;2023-04-03T09:48:17;16.90;45.60
5846;DHT22;2949;50.778;7.094;2023-04-03T09:50:57;16.70;45.50
5846;DHT22;2949;50.778;7.094;2023-04-03T09:55:59;16.60;47.80
5846;DHT22;2949;50.778;7.094;2023-04-03T09:58:38;17.20;45.50
5846;DHT22;2949;50.778;7.094;2023-04-03T10:01:10;16.70;46.10
5846;DHT22;2949;50.778;7.094;2023-04-03T10:03:45;16.40;45.80
5846;DHT22;2949;50.778;7.094;2023-04-03T10:06:23;16.50;46.80
5846;DHT22;2949;50.778;7.094;2023-04-03T10:09:00;17.20;43.90
5846;DHT22;2949;50.778;7.094;2023-04-03T10:11:26;16.30;44.70
5846;DHT22;2949;50.778;7.094;2023-04-03T10:13:54;16.00;44.90
5846;DHT22;2949;50.778;7.094;2023-04-03T10:16:44;16.00;46.10
5846;DHT22;2949;50.778;7.094;2023-04-03T10:20:00;16.50;45.60
5846;DHT22;2949;50.778;7.094;2023-04-03T10:27:53;16.30;44.40
5846;DHT22;2949;50.778;7.094;2023-04-03T10:30:42;16.60;43.80
5846;DHT22;2949;50.778;7.094;2023-04-03T10:36:19;15.60;43.00
5846;DHT22;2949;50.778;7.094;2023-04-03T10:38:51;15.30;43.10
5846;DHT22;2949;50.778;7.094;2023-04-03T10:41:30;15.10;42.80
5846;DHT22;2949;50.778;7.094;2023-04-03T10:44:15;15.50;42.50
5846;DHT22;2949;50.778;7.094;2023-04-03T10:46:47;15.80;43.10
5846;DHT22;2949;50.778;7.094;2023-04-03T10:49:30;15.80;40.80
5846;DHT22;2949;50.778;7.094;2023-04-03T10:52:10;15.10;42.00
5846;DHT22;2949;50.778;7.094;2023-04-03T10:54:40;15.10;43.70
5846;DHT22;2949;50.778;7.094;2023-04-03T10:57:10;15.10;42.80
5846;DHT22;2949;50.778;7.094;2023-04-03T10:59:42;14.70;42.80
5846;DHT22;2949;50.778;7.094;2023-04-03T11:04:59;14.30;44.20
5846;DHT22;2949;50.778;7.094;2023-04-03T11:07:39;13.30;45.80
5846;DHT22;2949;50.778;7.094;2023-04-03T11:10:12;11.70;47.00
5846;DHT22;2949;50.778;7.094;2023-04-03T11:12:48;10.80;48.90
5846;DHT22;2949;50.778;7.094;2023-04-03T11:15:18;10.30;50.00
5846;DHT22;2949;50.778;7.094;2023-04-03T11:18:02;9.90;50.80
5846;DHT22;2949;50.778;7.094;2023-04-03T11:20:30;9.70;51.30
5846;DHT22;2949;50.778;7.094;2023-04-03T11:23:05;9.60;51.70
5846;DHT22;2949;50.778;7.094;2023-04-03T11:25:35;9.60;52.40
5846;DHT22;2949;50.778;7.094;2023-04-03T11:28:05;9.60;53.50
5846;DHT22;2949;50.778;7.094;2023-04-03T11:36:17;9.70;50.00
5846;DHT22;2949;50.778;7.094;2023-04-03T11:38:45;9.70;52.00
5846;DHT22;2949;50.778;7.094;2023-04-03T11:41:29;9.70;50.90
5846;DHT22;2949;50.778;7.094;2023-04-03T11:44:25;9.90;53.10
5846;DHT22;2949;50.778;7.094;2023-04-03T11:47:00;10.10;52.30
5846;DHT22;2949;50.778;7.094;2023-04-03T11:49:52;10.10;50.10
5846;DHT22;2949;50.778;7.094;2023-04-03T12:32:54;9.80;50.90
5846;DHT22;2949;50.778;7.094;2023-04-03T12:38:34;9.90;52.20
5846;DHT22;2949;50.778;7.094;2023-04-03T12:41:31;10.10;51.00
5846;DHT22;2949;50.778;7.094;2023-04-03T12:44:07;10.10;49.50
5846;DHT22;2949;50.778;7.094;2023-04-03T12:46:48;10.00;49.00
5846;DHT22;2949;50.778;7.094;2023-04-03T12:51:55;9.90;51.70
5846;DHT22;2949;50.778;7.094;2023-04-03T12:54:35;9.90;52.20
5846;DHT22;2949;50.778;7.094;2023-04-03T12:57:17;9.90;50.90
5846;DHT22;2949;50.778;7.094;2023-04-03T12:59:43;9.80;49.70
5846;DHT22;2949;50.778;7.094;2023-04-03T13:04:43;9.80;50.00
5846;DHT22;2949;50.778;7.094;2023-04-03T13:07:40;9.80;51.70
5846;DHT22;2949;50.778;7.094;2023-04-03T13:10:13;10.00;50.60
5846;DHT22;2949;50.778;7.094;2023-04-03T13:12:53;10.10;48.50
5846;DHT22;2949;50.778;7.094;2023-04-03T13:17:53;10.10;48.70
5846;DHT22;2949;50.778;7.094;2023-04-03T13:23:00;10.20;48.90
5846;DHT22;2949;50.778;7.094;2023-04-03T13:25:30;10.40;50.50
5846;DHT22;2949;50.778;7.094;2023-04-03T13:27:58;10.30;48.00
5846;DHT22;2949;50.778;7.094;2023-04-03T13:30:28;10.20;49.00
5846;DHT22;2949;50.778;7.094;2023-04-03T13:32:57;10.10;49.00
5846;DHT22;2949;50.778;7.094;2023-04-03T13:35:31;10.20;48.70
5846;DHT22;2949;50.778;7.094;2023-04-03T13:38:05;10.20;49.80
5846;DHT22;2949;50.778;7.094;2023-04-03T13:40:31;10.20;47.80
5846;DHT22;2949;50.778;7.094;2023-04-03T13:43:14;10.00;49.00
5846;DHT22;2949;50.778;7.094;2023-04-03T13:48:36;10.20;48.10
5846;DHT22;2949;50.778;7.094;2023-04-03T13:51:05;10.20;48.30
5846;DHT22;2949;50.778;7.094;2023-04-03T13:53:33;10.20;49.90
5846;DHT22;2949;50.778;7.094;2023-04-03T13:56:09;10.30;50.20
5846;DHT22;2949;50.778;7.094;2023-04-03T13:58:36;10.40;48.40
5846;DHT22;2949;50.778;7.094;2023-04-03T14:01:18;10.30;50.30
5846;DHT22;2949;50.778;7.094;2023-04-03T14:03:58;10.30;49.20
5846;DHT22;2949;50.778;7.094;2023-04-03T14:06:25;10.30;49.50
5846;DHT22;2949;50.778;7.094;2023-04-03T14:08:51;10.30;49.10
5846;DHT22;2949;50.778;7.094;2023-04-03T14:11:22;10.30;48.20
5846;DHT22;2949;50.778;7.094;2023-04-03T14:13:49;10.30;48.30
5846;DHT22;2949;50.778;7.094;2023-04-03T14:16:19;10.40;49.80
5846;DHT22;2949;50.778;7.094;2023-04-03T14:18:46;10.40;47.60
5846;DHT22;2949;50.778;7.094;2023-04-03T14:21:14;10.40;47.50
5846;DHT22;2949;50.778;7.094;2023-04-03T14:23:40;10.40;47.40
5846;DHT22;2949;50.778;7.094;2023-04-03T14:26:12;10.30;47.70
5846;DHT22;2949;50.778;7.094;2023-04-03T14:28:38;10.30;49.70
5846;DHT22;2949;50.778;7.094;2023-04-03T14:31:05;10.30;48.70
5846;DHT22;2949;50.778;7.094;2023-04-03T14:33:32;10.40;49.20
5846;DHT22;2949;50.778;7.094;2023-04-03T14:36:00;10.40;49.20
5846;DHT22;2949;50.778;7.094;2023-04-03T14:38:29;10.40;49.80
5846;DHT22;2949;50.778;7.094;2023-04-03T14:40:56;10.40;48.90
5846;DHT22;2949;50.778;7.094;2023-04-03T14:43:23;10.50;49.20
5846;DHT22;2949;50.778;7.094;2023-04-03T14:45:49;10.50;49.40
5846;DHT22;2949;50.778;7.094;2023-04-03T14:48:20;10.50;49.50
5846;DHT22;2949;50.778;7.094;2023-04-03T14:50:46;10.40;50.20
5846;DHT22;2949;50.778;7.094;2023-04-03T14:53:13;10.50;50.60
5846;DHT22;2949;50.778;7.094;2023-04-03T14:55:44;10.60;50.10
5846;DHT22;2949;50.778;7.094;2023-04-03T14:58:18;10.60;48.40
5846;DHT22;2949;50.778;7.094;2023-04-03T15:00:44;10.50;50.30
5846;DHT22;2949;50.778;7.094;2023-04-03T15:03:19;10.60;48.90
5846;DHT22;2949;50.778;7.094;2023-04-03T15:05:47;10.60;49.90
5846;DHT22;2949;50.778;7.094;2023-04-03T15:08:23;10.50;48.10
5846;DHT22;2949;50.778;7.094;2023-04-03T15:10:49;10.40;47.70
5846;DHT22;2949;50.778;7.094;2023-04-03T15:13:15;10.30;48.70
5846;DHT22;2949;50.778;7.094;2023-04-03T15:15:41;10.30;48.90
5846;DHT22;2949;50.778;7.094;2023-04-03T15:18:14;10.30;49.80
5846;DHT22;2949;50.778;7.094;2023-04-03T15:20:40;10.40;49.80
5846;DHT22;2949;50.778;7.094;2023-04-03T15:23:05;10.50;50.30
5846;DHT22;2949;50.778;7.094;2023-04-03T15:25:32;10.50;51.10
5846;DHT22;2949;50.778;7.094;2023-04-03T15:27:57;10.60;50.20
5846;DHT22;2949;50.778;7.094;2023-04-03T15:30:23;10.60;49.20
5846;DHT22;2949;50.778;7.094;2023-04-03T15:32:49;10.50;51.00
5846;DHT22;2949;50.778;7.094;2023-04-03T15:35:16;10.40;50.20
5846;DHT22;2949;50.778;7.094;2023-04-03T15:37:41;10.50;50.80
5846;DHT22;2949;50.778;7.094;2023-04-03T15:40:07;10.50;50.90
5846;DHT22;2949;50.778;7.094;2023-04-03T15:42:33;10.60;49.10
5846;DHT22;2949;50.778;7.094;2023-04-03T15:44:59;10.60;49.50
5846;DHT22;2949;50.778;7.094;2023-04-03T15:47:25;10.60;49.10
5846;DHT22;2949;50.778;7.094;2023-04-03T15:49:51;10.50;48.70
5846;DHT22;2949;50.778;7.094;2023-04-03T15:52:17;10.50;49.30
5846;DHT22;2949;50.778;7.094;2023-04-03T15:54:43;10.50;49.20
5846;DHT22;2949;50.778;7.094;2023-04-03T15:57:08;10.50;49.00
5846;DHT22;2949;50.778;7.094;2023-04-03T15:59:34;10.50;49.40
5846;DHT22;2949;50.778;7.094;2023-04-03T16:02:00;10.50;50.60
5846;DHT22;2949;50.778;7.094;2023-04-03T16:04:27;10.50;50.50
5846;DHT22;2949;50.778;7.094;2023-04-03T16:06:53;10.50;49.90
5846;DHT22;2949;50.778;7.094;2023-04-03T16:09:19;10.50;50.70
5846;DHT22;2949;50.778;7.094;2023-04-03T16:11:44;10.50;50.40
5846;DHT22;2949;50.778;7.094;2023-04-03T16:14:10;10.40;50.70
5846;DHT22;2949;50.778;7.094;2023-04-03T16:16:36;10.40;51.30
5846;DHT22;2949;50.778;7.094;2023-04-03T16:19:02;10.40;49.30
5846;DHT22;2949;50.778;7.094;2023-04-03T16:21:29;10.40;50.10
5846;DHT22;2949;50.778;7.094;2023-04-03T16:23:57;10.40;49.50
5846;DHT22;2949;50.778;7.094;2023-04-03T16:26:23;10.40;49.00
5846;DHT22;2949;50.778;7.094;2023-04-03T16:28:48;10.40;49.30
5846;DHT22;2949;50.778;7.094;2023-04-03T16:31:14;10.40;48.70
5846;DHT22;2949;50.778;7.094;2023-04-03T16:33:39;10.30;49.50
5846;DHT22;2949;50.778;7.094;2023-04-03T16:36:05;10.40;49.70
5846;DHT22;2949;50.778;7.094;2023-04-03T16:38:31;10.40;49.60
5846;DHT22;2949;50.778;7.094;2023-04-03T16:40:57;10.30;49.30
5846;DHT22;2949;50.778;7.094;2023-04-03T16:43:25;10.30;49.60
5846;DHT22;2949;50.778;7.094;2023-04-03T16:45:51;10.20;48.90
5846;DHT22;2949;50.778;7.094;2023-04-03T16:48:16;10.20;49.00
5846;DHT22;2949;50.778;7.094;2023-04-03T16:50:45;10.10;49.40
5846;DHT22;2949;50.778;7.094;2023-04-03T16:53:13;10.10;49.30
5846;DHT22;2949;50.778;7.094;2023-04-03T16:55:38;10.10;49.80
5846;DHT22;2949;50.778;7.094;2023-04-03T16:58:05;10.10;50.60
5846;DHT22;2949;50.778;7.094;2023-04-03T17:00:31;10.10;50.90
5846;DHT22;2949;50.778;7.094;2023-04-03T17:02:57;10.10;50.50
5846;DHT22;2949;50.778;7.094;2023-04-03T17:05:22;10.10;50.70
5846;DHT22;2949;50.778;7.094;2023-04-03T17:07:49;10.10;51.30
5846;DHT22;2949;50.778;7.094;2023-04-03T17:10:15;10.10;51.50
5846;DHT22;2949;50.778;7.094;2023-04-03T17:12:41;10.00;51.80
5846;DHT22;2949;50.778;7.094;2023-04-03T17:15:06;9.90;52.10
5846;DHT22;2949;50.778;7.094;2023-04-03T17:17:32;9.80;52.40
5846;DHT22;2949;50.778;7.094;2023-04-03T17:19:58;9.60;53.10
5846;DHT22;2949;50.778;7.094;2023-04-03T17:22:24;9.40;53.20
5846;DHT22;2949;50.778;7.094;2023-04-03T17:24:50;9.20;53.70
5846;DHT22;2949;50.778;7.094;2023-04-03T17:27:16;9.00;54.80
5846;DHT22;2949;50.778;7.094;2023-04-03T17:29:41;8.80;54.00
5846;DHT22;2949;50.778;7.094;2023-04-03T17:32:07;8.70;53.30
5846;DHT22;2949;50.778;7.094;2023-04-03T17:34:32;8.60;53.20
5846;DHT22;2949;50.778;7.094;2023-04-03T17:36:59;8.40;53.90
5846;DHT22;2949;50.778;7.094;2023-04-03T17:39:24;8.30;54.80
5846;DHT22;2949;50.778;7.094;2023-04-03T17:41:50;8.30;55.80
5846;DHT22;2949;50.778;7.094;2023-04-03T17:44:15;8.20;55.80
5846;DHT22;2949;50.778;7.094;2023-04-03T17:46:41;8.10;56.00
5846;DHT22;2949;50.778;7.094;2023-04-03T17:49:07;8.10;56.80
5846;DHT22;2949;50.778;7.094;2023-04-03T17:51:34;8.00;57.10
5846;DHT22;2949;50.778;7.094;2023-04-03T17:54:00;7.90;57.70
5846;DHT22;2949;50.778;7.094;2023-04-03T17:56:26;7.80;58.10